Time;durP1;ratioP1;P1;durP2;ratioP2;P2;SDS_P1;SDS_P2;PMS_P1;PMS_P2;Temp;Humidity;BMP_temperature;BMP_pressure;BME280_temperature;BME280_humidity;BME280_pressure;Samples;Min_cycle;Max_cycle;Signal;HPM_P1;HPM_P2
2022/04/23 00:01:11;;;;;;;39.13;17.90;;;;;;;;;;5032211;28;20025;-59
2022/04/23 00:03:36;;;;;;;42.70;19.55;;;;;;;;;;5031893;28;20060;-61
2022/04/23 00:06:02;;;;;;;44.53;20.10;;;;;;;;;;5029293;28;20025;-59
2022/04/23 00:08:28;;;;;;;44.65;18.95;;;;;;;;;;5034389;28;20471;-60
2022/04/23 00:10:53;;;;;;;40.10;19.02;;;;;;;;;;5031648;28;20064;-59
2022/04/23 00:13:19;;;;;;;50.42;19.77;;;;;;;;;;5032046;28;20029;-59
2022/04/23 00:15:45;;;;;;;52.67;22.45;;;;;;;;;;5032034;28;20054;-58
2022/04/23 00:18:10;;;;;;;52.42;23.17;;;;;;;;;;5031656;28;20033;-59
2022/04/23 00:20:37;;;;;;;62.70;23.35;;;;;;;;;;5031867;28;20065;-59
2022/04/23 00:23:05;;;;;;;47.75;20.80;;;;;;;;;;5031651;28;20046;-60
2022/04/23 00:25:31;;;;;;;51.03;22.15;;;;;;;;;;5032005;28;20063;-59
2022/04/23 00:27:57;;;;;;;46.17;20.95;;;;;;;;;;5022785;28;20448;-59
2022/04/23 00:30:23;;;;;;;45.30;20.10;;;;;;;;;;5021304;28;20097;-56
2022/04/23 00:32:48;;;;;;;45.10;20.33;;;;;;;;;;5019408;28;20013;-58
2022/04/23 00:35:17;;;;;;;46.42;20.50;;;;;;;;;;5021039;28;20032;-59
2022/04/23 00:37:44;;;;;;;42.08;19.80;;;;;;;;;;5021239;28;20020;-55
2022/04/23 00:40:17;;;;;;;42.13;20.17;;;;;;;;;;5019358;28;20415;-60
2022/04/23 00:42:46;;;;;;;48.20;21.55;;;;;;;;;;5020275;28;20146;-59
2022/04/23 00:45:11;;;;;;;52.40;22.30;;;;;;;;;;5021594;28;20327;-59
2022/04/23 00:47:38;;;;;;;48.55;20.17;;;;;;;;;;5022766;28;20022;-60
2022/04/23 00:50:04;;;;;;;45.15;21.00;;;;;;;;;;5021614;28;20091;-60
2022/04/23 00:52:30;;;;;;;41.83;21.13;;;;;;;;;;5021493;28;20465;-59
2022/04/23 00:54:56;;;;;;;40.45;19.27;;;;;;;;;;5023396;28;20028;-60
2022/04/23 00:57:21;;;;;;;37.45;19.45;;;;;;;;;;5030821;28;20017;-61
2022/04/23 00:59:49;;;;;;;40.20;19.70;;;;;;;;;;5030208;28;20040;-59
2022/04/23 01:02:15;;;;;;;41.08;19.35;;;;;;;;;;5029898;28;20034;-60
2022/04/23 01:04:41;;;;;;;45.45;20.45;;;;;;;;;;5029621;28;20029;-60
2022/04/23 01:07:07;;;;;;;43.20;20.10;;;;;;;;;;5019609;28;20047;-59
2022/04/23 01:09:33;;;;;;;36.55;20.13;;;;;;;;;;5018001;28;20402;-60
2022/04/23 01:11:59;;;;;;;37.72;18.27;;;;;;;;;;5021045;28;20039;-59
2022/04/23 01:14:26;;;;;;;40.60;20.40;;;;;;;;;;5020763;28;20410;-61
2022/04/23 01:16:51;;;;;;;42.72;19.80;;;;;;;;;;5022442;28;20113;-60
2022/04/23 01:19:17;;;;;;;44.58;19.33;;;;;;;;;;5024721;28;20449;-60
2022/04/23 01:21:43;;;;;;;34.53;18.48;;;;;;;;;;5029135;28;20552;-60
2022/04/23 01:24:09;;;;;;;35.50;18.15;;;;;;;;;;5037262;28;20150;-60
2022/04/23 01:26:35;;;;;;;35.42;19.27;;;;;;;;;;5026703;28;20368;-59
2022/04/23 01:29:01;;;;;;;38.58;18.83;;;;;;;;;;5023682;28;20033;-59
2022/04/23 01:31:27;;;;;;;38.30;18.50;;;;;;;;;;5024783;28;20051;-60
2022/04/23 01:33:53;;;;;;;39.05;18.10;;;;;;;;;;5025606;28;20017;-59
2022/04/23 01:36:19;;;;;;;39.08;20.15;;;;;;;;;;5023672;28;20452;-60
2022/04/23 01:38:45;;;;;;;41.75;20.58;;;;;;;;;;5026344;28;20017;-59
2022/04/23 01:41:11;;;;;;;40.70;18.98;;;;;;;;;;5035017;28;20048;-59
2022/04/23 01:43:36;;;;;;;34.17;18.90;;;;;;;;;;5034841;28;20466;-59
2022/04/23 01:46:02;;;;;;;28.90;16.65;;;;;;;;;;5034898;28;20478;-59
2022/04/23 01:48:28;;;;;;;35.60;18.05;;;;;;;;;;5034240;28;20033;-60
2022/04/23 01:50:55;;;;;;;32.20;18.15;;;;;;;;;;5034730;28;20053;-59
2022/04/23 01:53:22;;;;;;;32.85;17.88;;;;;;;;;;5017013;28;20109;-60
2022/04/23 01:55:51;;;;;;;34.88;16.80;;;;;;;;;;5034742;28;20026;-60
2022/04/23 01:58:16;;;;;;;36.72;17.42;;;;;;;;;;5034433;28;20103;-60
2022/04/23 02:00:44;;;;;;;34.63;16.80;;;;;;;;;;5034578;28;20449;-59
2022/04/23 02:03:09;;;;;;;37.90;16.88;;;;;;;;;;5034395;28;20038;-60
2022/04/23 02:05:35;;;;;;;33.92;17.13;;;;;;;;;;5034603;28;20028;-59
2022/04/23 02:08:00;;;;;;;29.08;17.30;;;;;;;;;;5034651;28;20393;-59
2022/04/23 02:10:26;;;;;;;31.63;16.38;;;;;;;;;;5034505;28;20064;-61
2022/04/23 02:12:51;;;;;;;32.25;17.05;;;;;;;;;;5034203;28;20445;-59
2022/04/23 02:15:17;;;;;;;29.65;16.30;;;;;;;;;;5034457;28;20425;-59
2022/04/23 02:17:45;;;;;;;30.55;16.40;;;;;;;;;;5034337;28;20033;-60
2022/04/23 02:20:16;;;;;;;27.27;15.65;;;;;;;;;;5034139;28;20137;-59
2022/04/23 02:22:41;;;;;;;;;;;;;;;;;;5038634;28;20037;-60
2022/04/23 02:25:07;;;;;;;26.58;15.40;;;;;;;;;;5054106;28;19939;-59
2022/04/23 02:27:46;;;;;;;25.42;15.73;;;;;;;;;;5034960;28;20017;-60
2022/04/23 02:30:14;;;;;;;27.73;16.20;;;;;;;;;;5054086;28;20108;-59
2022/04/23 02:32:41;;;;;;;29.17;15.75;;;;;;;;;;5054067;28;20102;-60
2022/04/23 02:35:07;;;;;;;28.40;15.82;;;;;;;;;;5053829;28;20036;-60
2022/04/23 02:37:36;;;;;;;28.85;16.52;;;;;;;;;;5053967;28;20025;-60
2022/04/23 02:40:02;;;;;;;26.60;15.68;;;;;;;;;;5053769;28;20504;-61
2022/04/23 02:42:29;;;;;;;30.58;16.88;;;;;;;;;;5053517;28;20036;-59
2022/04/23 02:44:55;;;;;;;31.17;16.38;;;;;;;;;;5053666;28;20436;-59
2022/04/23 02:47:21;;;;;;;30.17;16.33;;;;;;;;;;5053645;28;20021;-61
2022/04/23 02:49:47;;;;;;;28.67;16.90;;;;;;;;;;5053560;28;20091;-59
2022/04/23 02:52:12;;;;;;;30.38;17.17;;;;;;;;;;5053692;28;20461;-59
2022/04/23 02:54:38;;;;;;;29.63;16.92;;;;;;;;;;5053716;28;20033;-59
2022/04/23 02:57:04;;;;;;;33.35;17.20;;;;;;;;;;5053386;28;20091;-59
2022/04/23 02:59:30;;;;;;;30.40;17.15;;;;;;;;;;5053299;28;20064;-60
2022/04/23 03:01:56;;;;;;;30.23;17.35;;;;;;;;;;5053496;28;20053;-59
2022/04/23 03:04:21;;;;;;;38.60;25.42;;;;;;;;;;5053464;28;20385;-59
2022/04/23 03:06:47;;;;;;;38.53;22.85;;;;;;;;;;5053380;28;20115;-60
2022/04/23 03:09:12;;;;;;;38.15;22.38;;;;;;;;;;5053245;28;20095;-59
2022/04/23 03:11:38;;;;;;;30.70;17.65;;;;;;;;;;5053023;28;20029;-59
2022/04/23 03:14:04;;;;;;;29.80;18.17;;;;;;;;;;5053270;28;20040;-59
2022/04/23 03:16:29;;;;;;;26.63;17.33;;;;;;;;;;5053362;28;20025;-60
2022/04/23 03:18:58;;;;;;;32.70;18.42;;;;;;;;;;5052852;28;20158;-61
2022/04/23 03:21:24;;;;;;;30.95;17.75;;;;;;;;;;5052899;28;20036;-60
2022/04/23 03:23:50;;;;;;;28.75;17.20;;;;;;;;;;5052878;28;20028;-59
2022/04/23 03:26:15;;;;;;;26.15;16.48;;;;;;;;;;5048408;28;20025;-59
2022/04/23 03:28:41;;;;;;;30.70;17.48;;;;;;;;;;5011909;28;20481;-59
2022/04/23 03:31:08;;;;;;;25.65;16.45;;;;;;;;;;5013174;28;20099;-59
2022/04/23 03:33:34;;;;;;;26.77;17.08;;;;;;;;;;5013301;28;20032;-60
2022/04/23 03:36:00;;;;;;;28.60;16.70;;;;;;;;;;5012633;28;20080;-59
2022/04/23 03:38:26;;;;;;;27.02;16.23;;;;;;;;;;5012646;28;20030;-59
2022/04/23 03:40:54;;;;;;;36.25;16.85;;;;;;;;;;5012774;28;20053;-59
2022/04/23 03:43:25;;;;;;;25.58;15.27;;;;;;;;;;5013077;28;20088;-59
2022/04/23 03:45:52;;;;;;;26.88;15.40;;;;;;;;;;5012862;28;20049;-61
2022/04/23 03:48:18;;;;;;;23.63;15.07;;;;;;;;;;5012894;28;20022;-60
2022/04/23 03:50:43;;;;;;;27.80;15.45;;;;;;;;;;5012980;28;20434;-59
2022/04/23 03:53:09;;;;;;;26.80;15.23;;;;;;;;;;5012753;28;20380;-59
2022/04/23 03:55:35;;;;;;;22.77;14.30;;;;;;;;;;5012544;28;20483;-59
2022/04/23 03:58:01;;;;;;;22.83;14.30;;;;;;;;;;5012858;28;20026;-59
2022/04/23 04:00:30;;;;;;;21.08;13.90;;;;;;;;;;5012617;28;20313;-60
2022/04/23 04:02:56;;;;;;;21.45;14.07;;;;;;;;;;5012804;28;20030;-60
2022/04/23 04:05:22;;;;;;;24.58;14.35;;;;;;;;;;5012707;28;20079;-60
2022/04/23 04:07:48;;;;;;;22.25;13.65;;;;;;;;;;5012687;28;20022;-60
2022/04/23 04:10:17;;;;;;;24.08;13.88;;;;;;;;;;5012395;28;20030;-60
2022/04/23 04:12:42;;;;;;;21.80;13.93;;;;;;;;;;5012715;28;20442;-60
2022/04/23 04:15:10;;;;;;;22.50;13.98;;;;;;;;;;5012553;28;20026;-60
2022/04/23 04:17:36;;;;;;;20.58;13.55;;;;;;;;;;5012664;28;20430;-60
2022/04/23 04:20:04;;;;;;;19.98;13.73;;;;;;;;;;5012506;28;20165;-60
2022/04/23 04:22:30;;;;;;;25.55;14.23;;;;;;;;;;5017548;28;20042;-59
2022/04/23 04:24:57;;;;;;;23.02;13.30;;;;;;;;;;5051986;28;20033;-60
2022/04/23 04:27:23;;;;;;;25.27;14.27;;;;;;;;;;5052258;28;20060;-60
2022/04/23 04:29:48;;;;;;;23.52;13.95;;;;;;;;;;5052057;28;20427;-61
2022/04/23 04:32:14;;;;;;;22.63;13.65;;;;;;;;;;5052018;28;20111;-60
2022/04/23 04:34:40;;;;;;;23.30;13.63;;;;;;;;;;5052044;28;20432;-61
2022/04/23 04:37:07;;;;;;;22.83;13.82;;;;;;;;;;5052021;28;20078;-58
2022/04/23 04:39:35;;;;;;;23.73;14.02;;;;;;;;;;5051747;28;20040;-60
2022/04/23 04:42:01;;;;;;;22.27;12.85;;;;;;;;;;5052133;28;20108;-59
2022/04/23 04:44:26;;;;;;;21.67;12.75;;;;;;;;;;5051918;28;20103;-60
2022/04/23 04:46:52;;;;;;;19.73;13.15;;;;;;;;;;5051906;28;20035;-61
2022/04/23 04:49:18;;;;;;;22.20;13.95;;;;;;;;;;5051886;28;20033;-61
2022/04/23 04:51:44;;;;;;;24.42;13.60;;;;;;;;;;5055042;28;20033;-61
2022/04/23 04:54:10;;;;;;;23.13;13.50;;;;;;;;;;5055618;28;20074;-59
2022/04/23 04:56:35;;;;;;;27.20;13.82;;;;;;;;;;5055584;28;20107;-61
2022/04/23 04:59:01;;;;;;;22.55;13.63;;;;;;;;;;5055556;28;20037;-61
2022/04/23 05:01:27;;;;;;;24.00;14.57;;;;;;;;;;5055610;28;20381;-61
2022/04/23 05:03:54;;;;;;;27.50;13.90;;;;;;;;;;5055707;28;20029;-62
2022/04/23 05:06:20;;;;;;;22.13;13.45;;;;;;;;;;5055462;28;20049;-57
2022/04/23 05:08:45;;;;;;;20.27;13.68;;;;;;;;;;5055191;28;20021;-60
2022/04/23 05:11:11;;;;;;;21.45;14.10;;;;;;;;;;5055508;28;20035;-61
2022/04/23 05:13:38;;;;;;;23.38;13.90;;;;;;;;;;5055414;28;20048;-59
2022/04/23 05:16:07;;;;;;;25.75;13.80;;;;;;;;;;5055432;28;20120;-59
2022/04/23 05:18:34;;;;;;;24.43;15.07;;;;;;;;;;5055419;28;20060;-59
2022/04/23 05:20:59;;;;;;;22.85;13.90;;;;;;;;;;5055007;28;20044;-59
2022/04/23 05:23:25;;;;;;;23.35;13.88;;;;;;;;;;5054914;28;20045;-60
2022/04/23 05:25:51;;;;;;;25.85;15.07;;;;;;;;;;5055306;28;20025;-60
2022/04/23 05:28:16;;;;;;;24.38;14.05;;;;;;;;;;5055115;28;20489;-60
2022/04/23 05:30:43;;;;;;;21.63;14.32;;;;;;;;;;5055358;28;20036;-61
2022/04/23 05:33:09;;;;;;;24.95;15.18;;;;;;;;;;5055079;28;20102;-60
2022/04/23 05:35:34;;;;;;;24.83;14.80;;;;;;;;;;5054806;28;20017;-60
2022/04/23 05:38:00;;;;;;;24.95;14.85;;;;;;;;;;5055029;28;20033;-60
2022/04/23 05:40:26;;;;;;;29.05;16.20;;;;;;;;;;5054724;28;20032;-59
2022/04/23 05:42:55;;;;;;;28.90;17.05;;;;;;;;;;5054937;28;20025;-60
2022/04/23 05:45:22;;;;;;;29.83;16.00;;;;;;;;;;5054947;28;20080;-59
2022/04/23 05:47:47;;;;;;;26.85;16.40;;;;;;;;;;5054802;28;20025;-60
2022/04/23 05:50:13;;;;;;;26.05;16.40;;;;;;;;;;5054468;28;20080;-59
2022/04/23 05:52:38;;;;;;;26.73;15.85;;;;;;;;;;5054806;28;20053;-61
2022/04/23 05:55:05;;;;;;;25.83;14.88;;;;;;;;;;5054807;28;20058;-60
2022/04/23 05:57:32;;;;;;;23.60;14.80;;;;;;;;;;5054554;28;20075;-60
2022/04/23 05:59:57;;;;;;;24.10;14.77;;;;;;;;;;5054578;28;20029;-59
2022/04/23 06:02:22;;;;;;;29.17;18.42;;;;;;;;;;5054291;28;20090;-59
2022/04/23 06:04:49;;;;;;;32.83;16.63;;;;;;;;;;5054381;28;20025;-61
2022/04/23 06:07:16;;;;;;;28.17;16.10;;;;;;;;;;5054427;28;20025;-61
2022/04/23 06:09:42;;;;;;;26.38;15.55;;;;;;;;;;5054112;28;20033;-60
2022/04/23 06:12:08;;;;;;;22.45;14.48;;;;;;;;;;5054343;28;20021;-59
2022/04/23 06:14:33;;;;;;;19.08;11.27;;;;;;;;;;5054204;28;20065;-59
2022/04/23 06:16:59;;;;;;;15.30;10.07;;;;;;;;;;5054210;28;20021;-60
2022/04/23 06:19:24;;;;;;;15.43;9.95;;;;;;;;;;5053849;28;20028;-60
2022/04/23 06:21:50;;;;;;;14.75;9.57;;;;;;;;;;5053769;28;20497;-60
2022/04/23 06:24:16;;;;;;;15.25;9.38;;;;;;;;;;5053744;28;20040;-59
2022/04/23 06:26:41;;;;;;;11.73;8.13;;;;;;;;;;5054155;28;20535;-59
2022/04/23 06:29:07;;;;;;;14.90;7.55;;;;;;;;;;5053981;28;20025;-61
2022/04/23 06:31:32;;;;;;;10.50;7.97;;;;;;;;;;5053979;28;20021;-60
2022/04/23 06:33:58;;;;;;;15.48;8.40;;;;;;;;;;5053693;28;20108;-59
2022/04/23 06:36:23;;;;;;;14.35;7.60;;;;;;;;;;5054048;28;20025;-60
2022/04/23 06:38:49;;;;;;;17.10;7.78;;;;;;;;;;5053759;28;20094;-59
2022/04/23 06:41:14;;;;;;;9.45;7.25;;;;;;;;;;5053773;28;20052;-59
2022/04/23 06:43:40;;;;;;;9.32;6.80;;;;;;;;;;5021314;28;20041;-62
2022/04/23 06:46:05;;;;;;;10.40;7.60;;;;;;;;;;5013888;28;20021;-60
2022/04/23 06:48:30;;;;;;;18.33;8.95;;;;;;;;;;5013718;28;20022;-60
2022/04/23 06:50:56;;;;;;;12.18;8.00;;;;;;;;;;5013769;28;20038;-59
2022/04/23 06:53:21;;;;;;;11.05;7.55;;;;;;;;;;5013826;28;20026;-60
2022/04/23 06:55:47;;;;;;;16.58;8.88;;;;;;;;;;5013729;28;20442;-60
2022/04/23 06:58:14;;;;;;;19.50;8.20;;;;;;;;;;5013423;28;20134;-60
2022/04/23 07:00:41;;;;;;;13.57;8.18;;;;;;;;;;5013502;28;20095;-60
2022/04/23 07:03:07;;;;;;;17.05;8.27;;;;;;;;;;5013561;28;20124;-61
2022/04/23 07:05:33;;;;;;;12.27;7.60;;;;;;;;;;5013788;28;20101;-61
2022/04/23 07:08:03;;;;;;;12.27;8.25;;;;;;;;;;5013754;28;20459;-60
2022/04/23 07:10:30;;;;;;;14.77;8.20;;;;;;;;;;5013710;28;20112;-60
2022/04/23 07:12:56;;;;;;;22.15;8.30;;;;;;;;;;5012819;28;20065;-60
2022/04/23 07:15:23;;;;;;;13.75;8.30;;;;;;;;;;5013560;28;20527;-60
2022/04/23 07:17:50;;;;;;;11.30;8.48;;;;;;;;;;5013333;28;20368;-60
2022/04/23 07:20:16;;;;;;;18.15;8.65;;;;;;;;;;5013593;28;20461;-62
2022/04/23 07:25:32;;;;;;;10.95;7.32;;;;;;;;;;5035330;28;20051;-61
2022/04/23 07:27:58;;;;;;;14.13;6.18;;;;;;;;;;5052944;28;20112;-61
2022/04/23 07:30:25;;;;;;;8.18;5.90;;;;;;;;;;5053059;28;20033;-60
2022/04/23 07:32:55;;;;;;;9.77;5.80;;;;;;;;;;5052756;28;20071;-61
2022/04/23 07:38:24;;;;;;;9.18;5.85;;;;;;;;;;5053204;28;20504;-60
2022/04/23 07:40:51;;;;;;;9.63;5.93;;;;;;;;;;5052739;28;20029;-60
2022/04/23 07:43:17;;;;;;;9.63;6.05;;;;;;;;;;5052734;28;20025;-61
2022/04/23 07:45:45;;;;;;;7.30;5.88;;;;;;;;;;5052692;28;20074;-60
2022/04/23 07:48:12;;;;;;;7.57;5.65;;;;;;;;;;5052463;28;20071;-61
2022/04/23 07:50:40;;;;;;;10.00;5.57;;;;;;;;;;5052838;28;20060;-59
2022/04/23 07:53:07;;;;;;;11.48;6.10;;;;;;;;;;5052444;28;20387;-60
2022/04/23 07:55:38;;;;;;;9.20;5.70;;;;;;;;;;5052458;28;20032;-61
2022/04/23 07:58:05;;;;;;;7.00;5.50;;;;;;;;;;5052497;28;20021;-59
2022/04/23 08:00:36;;;;;;;7.65;5.97;;;;;;;;;;5052226;28;20120;-59
2022/04/23 08:03:03;;;;;;;11.98;5.50;;;;;;;;;;5052328;28;20082;-59
2022/04/23 08:05:29;;;;;;;9.52;6.13;;;;;;;;;;5052532;28;20025;-60
2022/04/23 08:07:55;;;;;;;6.68;5.80;;;;;;;;;;5052448;28;20111;-60
2022/04/23 08:10:21;;;;;;;10.77;5.88;;;;;;;;;;5052259;28;20439;-59
2022/04/23 08:12:46;;;;;;;9.73;5.63;;;;;;;;;;5052386;28;20028;-60
2022/04/23 08:15:12;;;;;;;7.35;5.32;;;;;;;;;;5052259;28;20025;-60
2022/04/23 08:17:38;;;;;;;14.40;6.75;;;;;;;;;;5052268;28;20028;-60
2022/04/23 08:20:06;;;;;;;10.32;5.72;;;;;;;;;;5052187;28;20033;-59
2022/04/23 08:22:31;;;;;;;11.25;5.97;;;;;;;;;;5045978;28;20489;-60
2022/04/23 08:24:57;;;;;;;11.77;5.95;;;;;;;;;;5014478;28;20044;-60
2022/04/23 08:27:22;;;;;;;6.35;5.68;;;;;;;;;;5016866;28;20025;-60
2022/04/23 08:32:33;;;;;;;10.23;5.82;;;;;;;;;;5016291;28;20494;-60
2022/04/23 08:34:59;;;;;;;9.88;6.18;;;;;;;;;;5016638;28;20025;-59
2022/04/23 08:37:25;;;;;;;10.10;7.07;;;;;;;;;;5019436;28;20033;-60
2022/04/23 08:39:51;;;;;;;8.93;6.10;;;;;;;;;;5026969;28;20037;-59
2022/04/23 08:42:17;;;;;;;7.18;5.68;;;;;;;;;;5025871;28;20048;-61
2022/04/23 08:44:43;;;;;;;7.07;5.45;;;;;;;;;;5025099;28;20104;-61
2022/04/23 08:47:11;;;;;;;10.30;6.28;;;;;;;;;;5026718;28;20029;-60
2022/04/23 08:49:40;;;;;;;10.20;6.47;;;;;;;;;;5007891;28;20022;-62
2022/04/23 08:52:09;;;;;;;7.67;5.87;;;;;;;;;;5024574;28;20464;-61
2022/04/23 08:54:37;;;;;;;8.90;6.35;;;;;;;;;;5026322;28;20445;-61
2022/04/23 08:57:03;;;;;;;8.00;6.22;;;;;;;;;;5026495;28;20097;-64
2022/04/23 08:59:29;;;;;;;7.63;6.13;;;;;;;;;;5024159;28;20487;-61
2022/04/23 09:01:55;;;;;;;7.07;6.10;;;;;;;;;;5026015;28;20053;-61
2022/04/23 09:04:21;;;;;;;5.97;5.13;;;;;;;;;;5031632;28;20022;-61
2022/04/23 09:06:47;;;;;;;6.20;5.07;;;;;;;;;;5035814;28;20026;-61
2022/04/23 09:09:19;;;;;;;5.70;4.97;;;;;;;;;;5035699;28;20352;-59
2022/04/23 09:11:53;;;;;;;6.10;5.50;;;;;;;;;;5038533;28;20063;-60
2022/04/23 09:14:30;;;;;;;6.72;5.28;;;;;;;;;;5028330;28;20025;-60
2022/04/23 09:25:37;;;;;;;6.43;5.25;;;;;;;;;;5052119;28;20389;-61
2022/04/23 09:28:18;;;;;;;6.88;5.25;;;;;;;;;;5040781;28;20021;-61
2022/04/23 09:30:45;;;;;;;6.80;4.80;;;;;;;;;;5043799;28;20025;-60
2022/04/23 09:33:12;;;;;;;7.00;5.20;;;;;;;;;;5050266;28;20486;-62
2022/04/23 09:35:59;;;;;;;6.07;5.10;;;;;;;;;;5037867;28;20519;-62
2022/04/23 09:38:26;;;;;;;6.35;5.10;;;;;;;;;;5045891;28;20087;-60
2022/04/23 09:40:56;;;;;;;6.57;5.03;;;;;;;;;;5029311;28;20030;-62
2022/04/23 09:43:25;;;;;;;9.82;5.03;;;;;;;;;;5029008;28;20406;-61
2022/04/23 09:46:05;;;;;;;6.10;5.30;;;;;;;;;;5028624;28;20025;-62
2022/04/23 09:48:32;;;;;;;5.63;4.93;;;;;;;;;;5037479;28;20758;-62
2022/04/23 09:50:58;;;;;;;8.40;4.95;;;;;;;;;;5028019;28;20029;-60
2022/04/23 09:53:27;;;;;;;6.45;4.70;;;;;;;;;;5026858;28;20486;-61
2022/04/23 09:56:05;;;;;;;6.20;4.93;;;;;;;;;;5040392;28;20040;-61
2022/04/23 09:58:33;;;;;;;10.02;4.82;;;;;;;;;;5044172;28;20031;-60
2022/04/23 10:01:00;;;;;;;7.03;4.68;;;;;;;;;;5048454;28;20083;-60
2022/04/23 10:03:33;;;;;;;6.32;4.68;;;;;;;;;;5037816;28;20025;-61
2022/04/23 10:05:59;;;;;;;6.72;4.60;;;;;;;;;;5048474;28;20513;-61
2022/04/23 10:08:27;;;;;;;7.47;4.43;;;;;;;;;;5043754;28;20029;-60
2022/04/23 10:11:12;;;;;;;12.15;4.32;;;;;;;;;;5041010;28;20517;-60
2022/04/23 10:13:41;;;;;;;5.65;4.50;;;;;;;;;;5050701;28;20409;-61
2022/04/23 10:16:10;;;;;;;8.30;4.70;;;;;;;;;;5041322;28;20028;-61
2022/04/23 10:18:38;;;;;;;7.95;4.25;;;;;;;;;;5043203;28;20029;-61
2022/04/23 10:21:08;;;;;;;9.32;4.53;;;;;;;;;;5048984;28;20037;-60
2022/04/23 10:24:07;;;;;;;7.55;4.10;;;;;;;;;;5051925;28;20041;-60
2022/04/23 10:26:43;;;;;;;6.55;4.70;;;;;;;;;;5026800;28;20102;-60
2022/04/23 10:29:11;;;;;;;7.60;4.60;;;;;;;;;;5033582;28;20048;-60
2022/04/23 10:31:37;;;;;;;12.50;4.75;;;;;;;;;;5033802;28;20025;-61
2022/04/23 10:34:03;;;;;;;6.60;5.10;;;;;;;;;;5033268;28;20498;-60
2022/04/23 10:36:28;;;;;;;9.40;5.22;;;;;;;;;;5034064;28;20613;-61
2022/04/23 10:39:20;;;;;;;6.47;4.50;;;;;;;;;;5035229;28;20159;-59
2022/04/23 10:41:46;;;;;;;9.32;4.70;;;;;;;;;;5036475;28;20033;-60
2022/04/23 10:44:12;;;;;;;8.63;4.38;;;;;;;;;;5033543;28;20034;-60
2022/04/23 10:46:38;;;;;;;9.32;4.95;;;;;;;;;;5032580;28;20168;-61
2022/04/23 10:49:16;;;;;;;5.95;4.00;;;;;;;;;;5031362;28;20533;-60
2022/04/23 10:51:53;;;;;;;11.27;5.53;;;;;;;;;;5033455;28;20029;-60
2022/04/23 10:54:40;;;;;;;10.60;5.10;;;;;;;;;;5033517;28;20021;-60
2022/04/23 10:57:10;;;;;;;8.00;5.22;;;;;;;;;;5032719;28;20052;-59
2022/04/23 10:59:48;;;;;;;9.35;4.10;;;;;;;;;;5031479;28;20163;-59
2022/04/23 11:02:19;;;;;;;6.32;4.95;;;;;;;;;;5032582;28;20057;-60
2022/04/23 11:13:28;;;;;;;8.90;3.65;;;;;;;;;;5033244;28;20040;-60
2022/04/23 11:16:06;;;;;;;4.80;3.47;;;;;;;;;;5033286;28;20026;-60
2022/04/23 11:18:33;;;;;;;4.88;3.30;;;;;;;;;;5033380;28;20396;-60
2022/04/23 11:21:17;;;;;;;5.43;3.40;;;;;;;;;;5033271;28;20072;-61
2022/04/23 11:23:45;;;;;;;5.45;3.00;;;;;;;;;;5032713;28;20540;-61
2022/04/23 11:26:22;;;;;;;4.40;3.05;;;;;;;;;;5033159;28;20392;-61
2022/04/23 11:28:57;;;;;;;6.97;3.95;;;;;;;;;;5033199;28;20100;-60
2022/04/23 11:31:23;;;;;;;5.97;3.40;;;;;;;;;;5032787;28;20029;-61
2022/04/23 11:33:54;;;;;;;5.68;3.72;;;;;;;;;;5032986;28;20029;-61
2022/04/23 11:36:24;;;;;;;6.55;3.50;;;;;;;;;;5033112;28;20385;-61
2022/04/23 11:38:49;;;;;;;6.85;3.47;;;;;;;;;;5032743;28;20495;-61
2022/04/23 11:41:30;;;;;;;6.97;4.40;;;;;;;;;;5032970;28;20101;-60
2022/04/23 11:43:56;;;;;;;7.70;4.63;;;;;;;;;;5032878;28;20537;-61
2022/04/23 11:46:22;;;;;;;10.13;4.40;;;;;;;;;;5032799;28;20030;-61
2022/04/23 11:48:49;;;;;;;6.63;4.00;;;;;;;;;;5032852;28;20029;-60
2022/04/23 11:51:16;;;;;;;9.75;3.90;;;;;;;;;;5032820;28;20084;-60
2022/04/23 11:53:49;;;;;;;8.27;4.68;;;;;;;;;;5032609;28;20021;-61
2022/04/23 11:56:28;;;;;;;12.27;5.07;;;;;;;;;;5032693;28;20025;-60
2022/04/23 11:59:04;;;;;;;7.30;4.88;;;;;;;;;;5032282;28;20028;-60
2022/04/23 12:01:30;;;;;;;6.22;3.95;;;;;;;;;;5032724;28;20075;-61
2022/04/23 12:03:57;;;;;;;7.55;3.88;;;;;;;;;;5032593;28;20053;-61
2022/04/23 12:06:24;;;;;;;5.63;3.35;;;;;;;;;;5032648;28;20025;-61
2022/04/23 12:08:51;;;;;;;5.35;3.65;;;;;;;;;;5032141;28;20026;-60
2022/04/23 12:11:24;;;;;;;5.13;3.35;;;;;;;;;;5032555;28;20033;-61
2022/04/23 12:13:51;;;;;;;5.28;3.60;;;;;;;;;;5032586;28;20177;-60
2022/04/23 12:16:33;;;;;;;7.60;3.30;;;;;;;;;;5032284;28;20033;-61
2022/04/23 12:19:02;;;;;;;7.72;3.35;;;;;;;;;;5032283;28;20049;-60
2022/04/23 12:21:29;;;;;;;6.47;3.42;;;;;;;;;;5031915;28;20045;-61
2022/04/23 12:23:55;;;;;;;7.75;2.92;;;;;;;;;;5032200;28;20041;-60
2022/04/23 12:26:21;;;;;;;6.20;3.00;;;;;;;;;;5032347;28;20343;-60
2022/04/23 12:42:24;;;;;;;5.78;3.75;;;;;;;;;;5032366;28;20059;-60
2022/04/23 12:44:52;;;;;;;5.78;3.55;;;;;;;;;;5032282;28;20108;-61
2022/04/23 12:47:29;;;;;;;7.53;3.55;;;;;;;;;;5032203;28;20025;-60
2022/04/23 12:50:00;;;;;;;5.03;2.92;;;;;;;;;;5032274;28;20413;-60
2022/04/23 12:52:29;;;;;;;4.50;2.97;;;;;;;;;;5031818;28;20025;-61
2022/04/23 12:55:14;;;;;;;6.55;3.20;;;;;;;;;;5032355;28;20056;-61
2022/04/23 12:57:52;;;;;;;7.63;3.53;;;;;;;;;;5032181;28;20030;-60
2022/04/23 13:00:24;;;;;;;7.97;2.92;;;;;;;;;;5032247;28;20079;-61
2022/04/23 13:02:57;;;;;;;5.50;2.83;;;;;;;;;;5032423;28;20352;-61
2022/04/23 13:05:23;;;;;;;7.82;3.80;;;;;;;;;;5031967;28;20096;-61
2022/04/23 13:10:35;;;;;;;4.97;2.50;;;;;;;;;;5032361;28;20064;-60
2022/04/23 13:13:00;;;;;;;5.20;2.83;;;;;;;;;;5035265;28;20053;-61
2022/04/23 13:15:26;;;;;;;7.88;3.20;;;;;;;;;;5035580;28;20045;-59
2022/04/23 13:17:52;;;;;;;5.72;3.25;;;;;;;;;;5035834;28;20030;-61
2022/04/23 13:20:19;;;;;;;6.78;2.88;;;;;;;;;;5035328;28;20462;-61
2022/04/23 13:22:45;;;;;;;7.07;3.03;;;;;;;;;;5035238;28;20052;-61
2022/04/23 13:25:13;;;;;;;4.70;2.85;;;;;;;;;;5035436;28;20028;-61
2022/04/23 13:27:39;;;;;;;9.82;3.00;;;;;;;;;;5035291;28;20478;-61
2022/04/23 13:30:05;;;;;;;7.65;2.97;;;;;;;;;;5035298;28;20032;-62
2022/04/23 13:32:32;;;;;;;8.32;3.30;;;;;;;;;;5035184;28;20359;-60
2022/04/23 13:34:58;;;;;;;7.38;3.30;;;;;;;;;;5034939;28;20457;-62
2022/04/23 13:37:24;;;;;;;8.82;3.10;;;;;;;;;;5017453;28;20060;-61
2022/04/23 13:39:49;;;;;;;5.43;3.30;;;;;;;;;;5035125;28;20071;-62
2022/04/23 13:42:17;;;;;;;6.80;3.95;;;;;;;;;;5035292;28;20021;-61
2022/04/23 13:44:43;;;;;;;10.75;3.97;;;;;;;;;;5035243;28;20032;-61
2022/04/23 13:47:09;;;;;;;8.02;3.72;;;;;;;;;;5035046;28;20029;-61
2022/04/23 13:49:36;;;;;;;9.07;3.35;;;;;;;;;;5034918;28;20029;-61
2022/04/23 13:52:04;;;;;;;7.63;3.90;;;;;;;;;;5035074;28;20017;-61
2022/04/23 13:54:30;;;;;;;7.25;3.13;;;;;;;;;;5034751;28;20021;-61
2022/04/23 13:56:55;;;;;;;7.82;3.53;;;;;;;;;;5034871;28;20061;-60
2022/04/23 13:59:21;;;;;;;7.15;3.50;;;;;;;;;;5034733;28;20057;-61
2022/04/23 14:10:04;;;;;;;8.88;3.47;;;;;;;;;;5034776;28;20079;-60
2022/04/23 14:10:07;;;;;;;5.95;3.33;;;;;;;;;;5034896;28;20029;-60
2022/04/23 14:12:33;;;;;;;9.70;3.90;;;;;;;;;;5034667;28;20433;-61
2022/04/23 14:14:59;;;;;;;10.07;4.70;;;;;;;;;;5034612;28;20171;-60
2022/04/23 14:17:24;;;;;;;10.88;4.47;;;;;;;;;;5033085;28;20505;-60
2022/04/23 14:19:50;;;;;;;10.73;5.13;;;;;;;;;;5032832;28;20371;-59
2022/04/23 14:22:15;;;;;;;9.80;4.32;;;;;;;;;;5015417;28;20038;-59
2022/04/23 14:24:41;;;;;;;9.70;4.03;;;;;;;;;;5011992;28;20026;-60
2022/04/23 14:27:07;;;;;;;7.28;3.53;;;;;;;;;;5016297;28;20034;-59
2022/04/23 14:29:32;;;;;;;10.18;3.80;;;;;;;;;;5028258;28;20025;-60
2022/04/23 14:31:58;;;;;;;12.57;4.05;;;;;;;;;;5028616;28;20407;-60
2022/04/23 14:34:24;;;;;;;8.02;3.88;;;;;;;;;;5028683;28;20540;-60
2022/04/23 14:36:50;;;;;;;7.68;3.65;;;;;;;;;;5027874;28;20112;-60
2022/04/23 14:39:15;;;;;;;7.13;3.70;;;;;;;;;;5028666;28;20112;-60
2022/04/23 14:41:41;;;;;;;7.65;3.80;;;;;;;;;;5028179;28;20021;-59
2022/04/23 14:44:06;;;;;;;11.43;3.40;;;;;;;;;;5028511;28;20474;-60
2022/04/23 14:46:32;;;;;;;7.43;2.92;;;;;;;;;;5028006;28;20502;-60
2022/04/23 14:48:58;;;;;;;10.80;3.35;;;;;;;;;;5026727;28;20504;-59
2022/04/23 14:54:08;;;;;;;7.78;3.15;;;;;;;;;;5028797;28;20028;-63
2022/04/23 14:56:33;;;;;;;12.48;2.95;;;;;;;;;;5028997;28;20032;-60
2022/04/23 14:59:01;;;;;;;7.63;3.20;;;;;;;;;;5028401;28;20464;-59
2022/04/23 15:01:26;;;;;;;7.32;4.03;;;;;;;;;;5028248;28;20033;-61
2022/04/23 15:03:52;;;;;;;10.18;3.88;;;;;;;;;;5028053;28;20021;-64
2022/04/23 15:06:21;;;;;;;23.13;11.80;;;;;;;;;;5028288;28;20021;-60
2022/04/23 15:08:47;;;;;;;31.30;13.98;;;;;;;;;;5027965;28;20104;-62
2022/04/23 15:11:12;;;;;;;11.55;4.28;;;;;;;;;;5028195;28;20112;-63
2022/04/23 15:13:38;;;;;;;9.50;3.78;;;;;;;;;;5029108;28;20041;-63
2022/04/23 15:16:04;;;;;;;7.63;4.45;;;;;;;;;;5027824;28;20044;-64
2022/04/23 15:18:30;;;;;;;9.07;4.55;;;;;;;;;;5026874;28;20025;-60
2022/04/23 15:20:56;;;;;;;10.20;4.25;;;;;;;;;;5027286;28;20155;-63